Time;durP1;ratioP1;P1;durP2;ratioP2;P2;SDS_P1;SDS_P2;PMS_P1;PMS_P2;Temp;Humidity;BMP_temperature;BMP_pressure;BME280_temperature;BME280_humidity;BME280_pressure;Samples;Min_cycle;Max_cycle;Signal;HPM_P1;HPM_P2
2022/06/11 00:00:01;;;;;;;9.88;5.30;;;;;;;16.48;93.28;101886.97;170657;29;999;-66
2022/06/11 00:00:08;;;;;;;10.63;5.33;;;;;;;16.50;93.10;101879.00;170744;29;875;-66
2022/06/11 00:00:15;;;;;;;10.53;5.22;;;;;;;16.49;93.16;101883.41;170701;29;1003;-66
2022/06/11 00:00:22;;;;;;;12.13;5.30;;;;;;;16.47;93.06;101882.63;170752;29;875;-66
2022/06/11 00:00:27;;;;;;;11.13;5.23;;;;;;;16.48;93.56;101886.97;170726;29;911;-66
2022/06/11 00:00:33;;;;;;;10.50;5.13;;;;;;;16.46;93.23;101881.78;170672;29;852;-66
2022/06/11 00:00:39;;;;;;;10.00;5.13;;;;;;;16.46;93.51;101884.41;170721;29;843;-66
2022/06/11 00:00:44;;;;;;;9.00;5.10;;;;;;;16.48;93.16;101886.97;170001;29;912;-66
2022/06/11 00:00:50;;;;;;;7.95;5.15;;;;;;;16.45;93.41;101872.19;170038;29;860;-66
2022/06/11 00:00:56;;;;;;;8.43;5.30;;;;;;;16.46;93.47;101879.13;170058;29;879;-66
2022/06/11 00:01:02;;;;;;;8.13;5.30;;;;;;;16.41;94.12;101878.53;170222;29;837;-66
2022/06/11 00:01:24;;;;;;;9.25;5.50;;;;;;;16.43;93.60;101884.56;170719;29;916;-66
2022/06/11 00:01:40;;;;;;;11.34;5.61;;;;;;;16.43;93.39;101881.91;170679;29;1249;-66
2022/06/11 00:01:53;;;;;;;10.61;5.50;;;;;;;16.45;93.42;101882.72;170719;29;1244;-66
2022/06/11 00:02:06;;;;;;;9.14;5.39;;;;;;;16.34;94.29;101887.66;170699;29;2400;-65
2022/06/11 00:02:12;;;;;;;9.91;5.32;;;;;;;16.29;94.71;101882.63;169923;29;1473;-65
2022/06/11 00:02:18;;;;;;;9.93;5.20;;;;;;;16.31;94.66;101885.19;170068;29;943;-65
2022/06/11 00:02:24;;;;;;;9.90;5.16;;;;;;;16.30;94.68;101883.50;169973;29;1169;-66
2022/06/11 00:02:30;;;;;;;9.00;5.17;;;;;;;16.32;94.42;101881.66;170070;29;1050;-66
2022/06/11 00:02:35;;;;;;;8.63;5.10;;;;;;;16.32;94.30;101882.47;170067;29;836;-65
2022/06/11 00:02:41;;;;;;;8.27;5.20;;;;;;;16.30;94.73;101894.88;170078;29;1060;-66
2022/06/11 00:02:46;;;;;;;8.85;5.28;;;;;;;16.31;94.43;101879.91;170050;29;1014;-66
2022/06/11 00:02:52;;;;;;;9.23;5.30;;;;;;;16.32;94.41;101881.66;170062;29;908;-66
2022/06/11 00:02:57;;;;;;;9.40;5.37;;;;;;;16.34;94.12;101882.41;170049;29;939;-66
2022/06/11 00:03:03;;;;;;;9.65;5.40;;;;;;;16.35;94.08;101884.97;170043;29;876;-66
2022/06/11 00:03:08;;;;;;;10.48;5.47;;;;;;;16.34;94.40;101885.91;170058;29;1038;-66
2022/06/11 00:03:14;;;;;;;9.80;5.43;;;;;;;16.31;94.68;101882.53;169989;29;870;-66
2022/06/11 00:03:20;;;;;;;9.80;5.27;;;;;;;16.29;94.86;101881.78;170110;29;974;-66
2022/06/11 00:03:26;;;;;;;10.52;5.50;;;;;;;16.26;95.14;101882.81;170016;29;1125;-66
2022/06/11 00:03:31;;;;;;;11.07;5.47;;;;;;;16.29;95.16;101879.16;170050;29;852;-66
2022/06/11 00:03:37;;;;;;;10.47;5.33;;;;;;;16.31;94.51;101885.19;170060;29;1312;-66
2022/06/11 00:03:43;;;;;;;10.15;5.28;;;;;;;16.32;94.65;101881.66;170095;29;908;-66
2022/06/11 00:03:54;;;;;;;9.68;5.38;;;;;;;16.30;94.95;101888.75;170060;29;982;-65
2022/06/11 00:04:07;;;;;;;8.45;5.14;;;;;;;16.23;95.59;101888.22;170047;29;1147;-66
2022/06/11 00:04:41;;;;;;;7.57;5.11;;;;;;;16.26;94.75;101887.19;170610;29;1234;-66
2022/06/11 00:04:47;;;;;;;8.50;5.15;;;;;;;16.32;94.49;101879.84;170727;29;1234;-66
2022/06/11 00:04:52;;;;;;;9.50;5.20;;;;;;;16.33;94.26;101884.16;170690;29;1029;-66
2022/06/11 00:04:58;;;;;;;9.83;5.33;;;;;;;16.34;94.31;101877.13;170715;29;919;-66
2022/06/11 00:05:05;;;;;;;10.27;5.35;;;;;;;16.36;94.29;101877.91;170708;29;923;-66
2022/06/11 00:05:12;;;;;;;10.07;5.20;;;;;;;16.38;94.16;101885.75;170712;29;1205;-66
2022/06/11 00:05:18;;;;;;;9.72;5.36;;;;;;;16.38;94.03;101876.03;170639;29;1079;-66
2022/06/11 00:05:24;;;;;;;8.47;5.37;;;;;;;16.40;93.87;101883.88;170727;29;946;-66
2022/06/11 00:05:29;;;;;;;9.20;5.38;;;;;;;16.40;93.86;101883.88;170688;29;915;-66
2022/06/11 00:05:36;;;;;;;9.13;5.53;;;;;;;16.41;93.80;101877.66;170695;29;1352;-66
2022/06/11 00:05:42;;;;;;;8.80;5.53;;;;;;;16.43;93.75;101883.72;170722;29;954;-66
2022/06/11 00:05:49;;;;;;;9.00;5.40;;;;;;;16.41;93.61;101881.16;170707;29;1004;-66
2022/06/11 00:05:55;;;;;;;9.67;5.33;;;;;;;16.43;93.75;101884.56;170730;29;883;-66
2022/06/11 00:06:03;;;;;;;9.15;5.28;;;;;;;16.43;93.62;101884.56;170707;29;931;-66
2022/06/11 00:06:08;;;;;;;8.70;5.02;;;;;;;16.44;93.61;101880.16;170711;29;1175;-66
2022/06/11 00:06:16;;;;;;;8.43;5.13;;;;;;;16.45;93.49;101879.22;170621;29;840;-66
2022/06/11 00:06:23;;;;;;;8.40;5.20;;;;;;;16.45;93.70;101874.81;170704;29;903;-66
2022/06/11 00:06:36;;;;;;;8.17;5.18;;;;;;;16.45;93.60;101877.44;170707;29;952;-66
2022/06/11 00:06:49;;;;;;;8.69;5.20;;;;;;;16.45;93.63;101881.84;170550;29;3149;-66
2022/06/11 00:07:00;;;;;;;8.41;5.16;;;;;;;16.46;93.36;101873.88;170671;29;1238;-66
2022/06/11 00:07:12;;;;;;;9.07;5.30;;;;;;;16.45;93.24;101880.06;170665;29;1245;-66
2022/06/11 00:07:23;;;;;;;10.88;5.50;;;;;;;16.44;93.30;101881.00;170716;29;1233;-66
2022/06/11 00:07:28;;;;;;;10.57;5.53;;;;;;;16.45;93.11;101877.44;170698;29;1328;-66
2022/06/11 00:07:34;;;;;;;9.60;5.50;;;;;;;16.46;93.38;101873.03;170670;29;840;-66
2022/06/11 00:07:39;;;;;;;9.23;5.53;;;;;;;16.45;93.04;101874.81;170705;29;1041;-66
2022/06/11 00:07:45;;;;;;;9.55;5.57;;;;;;;16.46;93.23;101879.13;170743;29;1030;-66
2022/06/11 00:07:51;;;;;;;9.43;5.43;;;;;;;16.44;93.76;101882.78;170722;29;907;-65
2022/06/11 00:07:57;;;;;;;10.00;5.50;;;;;;;16.42;93.53;101882.03;170721;29;931;-65
2022/06/11 00:08:04;;;;;;;10.30;5.35;;;;;;;16.43;93.56;101878.47;170711;29;867;-66
2022/06/11 00:08:10;;;;;;;10.80;5.17;;;;;;;16.43;93.31;101879.28;170721;29;974;-66
2022/06/11 00:08:17;;;;;;;10.33;5.10;;;;;;;16.45;93.40;101879.22;170763;29;959;-66
2022/06/11 00:08:23;;;;;;;10.28;5.04;;;;;;;16.44;93.53;101882.78;170547;29;1102;-66
2022/06/11 00:08:28;;;;;;;9.82;5.15;;;;;;;16.44;93.40;101881.00;170719;29;873;-66
2022/06/11 00:08:34;;;;;;;9.50;5.28;;;;;;;16.44;93.18;101882.78;170713;29;1119;-66
2022/06/11 00:08:39;;;;;;;9.13;5.30;;;;;;;16.43;93.45;101876.66;171011;28;908;-66
2022/06/11 00:08:47;;;;;;;8.55;5.30;;;;;;;16.44;93.40;101881.00;171417;28;1094;-66
2022/06/11 00:08:53;;;;;;;7.80;5.36;;;;;;;16.44;93.54;101881.00;171362;28;978;-66
2022/06/11 00:08:58;;;;;;;7.68;5.32;;;;;;;16.44;93.41;101875.75;170609;29;746;-66
2022/06/11 00:09:06;;;;;;;7.60;5.20;;;;;;;16.45;93.67;101881.84;170675;29;940;-66
2022/06/11 00:09:13;;;;;;;7.27;5.18;;;;;;;16.46;93.17;101880.94;170697;29;940;-66
2022/06/11 00:09:22;;;;;;;8.23;5.30;;;;;;;16.43;93.39;101879.28;170631;29;2230;-66
2022/06/11 00:09:28;;;;;;;9.41;5.27;;;;;;;16.44;93.45;101875.75;170721;29;1048;-66
2022/06/11 00:09:34;;;;;;;10.30;5.38;;;;;;;16.44;93.31;101880.16;170519;28;1427;-66
2022/06/11 00:09:41;;;;;;;10.40;5.32;;;;;;;16.45;93.30;101876.59;170694;29;1074;-66
2022/06/11 00:09:48;;;;;;;9.23;5.30;;;;;;;16.45;93.25;101881.84;170767;29;1201;-66
2022/06/11 00:09:54;;;;;;;9.60;5.32;;;;;;;16.44;93.35;101881.00;170697;29;963;-66
2022/06/11 00:10:01;;;;;;;9.95;5.30;;;;;;;16.44;93.28;101881.00;170700;29;943;-66
2022/06/11 00:10:08;;;;;;;9.67;5.30;;;;;;;16.43;93.65;101874.03;170709;29;1031;-66
2022/06/11 00:10:14;;;;;;;9.96;5.20;;;;;;;16.43;93.58;101874.03;170696;29;1019;-66
2022/06/11 00:10:20;;;;;;;10.13;5.20;;;;;;;16.44;93.44;101881.00;170695;29;872;-66
2022/06/11 00:10:26;;;;;;;10.23;5.30;;;;;;;16.44;92.93;101874.88;170659;29;1049;-66
2022/06/11 00:10:31;;;;;;;9.27;5.30;;;;;;;16.43;93.58;101878.47;170685;29;989;-66
2022/06/11 00:10:38;;;;;;;9.80;5.37;;;;;;;16.43;93.64;101874.03;170701;29;1018;-66
2022/06/11 00:10:43;;;;;;;10.43;5.47;;;;;;;16.42;93.50;101877.59;170629;29;1525;-66
2022/06/11 00:10:49;;;;;;;10.02;5.40;;;;;;;16.42;93.26;101874.13;170673;29;848;-66
2022/06/11 00:10:55;;;;;;;9.43;5.30;;;;;;;16.42;93.76;101877.59;170591;29;1405;-66
2022/06/11 00:11:00;;;;;;;8.95;5.32;;;;;;;16.43;93.29;101873.19;170690;29;924;-66
2022/06/11 00:11:07;;;;;;;9.35;5.40;;;;;;;16.43;93.34;101886.34;170697;29;940;-66
2022/06/11 00:11:13;;;;;;;9.43;5.40;;;;;;;16.41;93.71;101875.91;170718;29;971;-66
2022/06/11 00:11:20;;;;;;;9.98;5.44;;;;;;;16.40;93.57;101879.47;170674;29;899;-66
2022/06/11 00:11:26;;;;;;;10.08;5.54;;;;;;;16.40;93.47;101874.19;170680;29;903;-65
2022/06/11 00:11:33;;;;;;;9.50;5.33;;;;;;;16.41;93.54;101880.31;170705;29;861;-66
2022/06/11 00:11:39;;;;;;;8.86;5.30;;;;;;;16.41;93.43;101878.53;170588;28;1157;-66
2022/06/11 00:11:47;;;;;;;9.34;5.46;;;;;;;16.42;93.45;101876.75;170743;29;1398;-66
2022/06/11 00:11:54;;;;;;;8.65;5.27;;;;;;;16.41;93.80;101875.03;170700;29;956;-66
2022/06/11 00:12:00;;;;;;;9.06;5.42;;;;;;;16.40;93.82;101874.19;169979;29;1392;-66
2022/06/11 00:12:10;;;;;;;9.15;5.43;;;;;;;16.41;93.87;101875.91;170046;29;916;-66
2022/06/11 00:12:16;;;;;;;7.47;5.20;;;;;;;16.40;93.60;101871.56;169299;29;1554;-66
2022/06/11 00:12:22;;;;;;;7.44;5.20;;;;;;;16.40;93.85;101873.34;169362;29;972;-66
2022/06/11 00:12:27;;;;;;;7.63;5.20;;;;;;;16.40;93.74;101876.84;169272;29;1229;-66
2022/06/11 00:12:33;;;;;;;8.00;5.18;;;;;;;16.40;93.54;101879.47;169364;29;1405;-66
2022/06/11 00:12:39;;;;;;;9.07;5.27;;;;;;;16.41;93.52;101881.16;169337;29;1121;-66
2022/06/11 00:12:44;;;;;;;9.93;5.30;;;;;;;16.41;93.89;101880.31;169410;29;861;-66
2022/06/11 00:12:50;;;;;;;10.85;5.38;;;;;;;16.40;93.32;101879.47;169370;29;840;-66
2022/06/11 00:12:55;;;;;;;11.87;5.40;;;;;;;16.39;93.60;101877.75;169360;29;841;-66
2022/06/11 00:13:03;;;;;;;11.70;5.38;;;;;;;16.39;93.89;101872.47;169380;29;853;-66
2022/06/11 00:13:09;;;;;;;11.17;5.30;;;;;;;16.39;93.94;101876.91;169398;29;1142;-66
2022/06/11 00:13:15;;;;;;;11.18;5.48;;;;;;;16.39;93.86;101877.75;169309;29;1125;-66
2022/06/11 00:13:22;;;;;;;11.18;5.70;;;;;;;16.39;94.04;101877.75;169301;29;1964;-66
2022/06/11 00:13:27;;;;;;;10.90;5.73;;;;;;;16.38;93.94;101870.78;169374;29;865;-66
2022/06/11 00:13:34;;;;;;;10.70;5.80;;;;;;;16.38;93.67;101878.69;169374;29;1039;-66
2022/06/11 00:13:42;;;;;;;11.57;5.87;;;;;;;16.39;93.91;101880.38;169409;29;960;-66
2022/06/11 00:13:48;;;;;;;11.57;5.70;;;;;;;16.38;93.68;101875.22;169467;29;892;-66
2022/06/11 00:13:54;;;;;;;11.67;5.70;;;;;;;16.38;93.60;101876.03;169420;29;1271;-66
2022/06/11 00:14:00;;;;;;;12.25;5.63;;;;;;;16.38;93.80;101881.31;169928;29;971;-66
2022/06/11 00:14:07;;;;;;;10.85;5.53;;;;;;;16.38;93.80;101876.03;170047;29;927;-66
2022/06/11 00:14:14;;;;;;;9.88;5.35;;;;;;;16.38;93.63;101876.03;170056;29;983;-66
2022/06/11 00:14:25;;;;;;;9.32;5.28;;;;;;;16.38;94.10;101875.22;170671;29;1002;-66
2022/06/11 00:14:33;;;;;;;8.32;5.21;;;;;;;16.38;93.81;101876.03;171291;28;1405;-66
2022/06/11 00:14:45;;;;;;;9.10;5.40;;;;;;;16.37;93.94;101879.63;171373;28;959;-66
2022/06/11 00:14:51;;;;;;;9.23;5.60;;;;;;;16.37;93.83;101879.63;171252;28;1212;-66
2022/06/11 00:14:56;;;;;;;8.55;5.60;;;;;;;16.37;94.24;101879.63;170635;28;905;-66
2022/06/11 00:15:06;;;;;;;9.80;5.82;;;;;;;16.37;94.05;101879.63;170715;29;857;-66
2022/06/11 00:15:12;;;;;;;9.91;5.79;;;;;;;16.37;94.20;101878.75;170685;29;1169;-66
2022/06/11 00:15:17;;;;;;;9.68;5.63;;;;;;;16.36;94.14;101877.91;170758;29;970;-66
2022/06/11 00:15:23;;;;;;;9.70;5.63;;;;;;;16.37;93.85;101876.13;169954;29;1619;-66
2022/06/11 00:15:30;;;;;;;9.88;5.68;;;;;;;16.37;94.02;101878.75;169319;29;1063;-66
2022/06/11 00:15:36;;;;;;;8.53;5.60;;;;;;;16.36;94.16;101877.91;169297;29;936;-66
2022/06/11 00:15:43;;;;;;;8.45;5.55;;;;;;;16.37;93.85;101879.63;169282;29;1286;-66
2022/06/11 00:15:53;;;;;;;9.87;5.70;;;;;;;16.35;94.01;101882.31;169348;29;1063;-65
2022/06/11 00:16:01;;;;;;;10.03;5.70;;;;;;;16.34;93.79;101880.63;168450;29;1347;-66
2022/06/11 00:16:07;;;;;;;10.56;5.69;;;;;;;16.34;94.37;101879.75;168642;29;1077;-65
2022/06/11 00:16:15;;;;;;;11.07;5.65;;;;;;;16.35;94.20;101876.19;168565;29;937;-66
2022/06/11 00:16:26;;;;;;;11.20;5.70;;;;;;;16.35;94.14;101873.56;168732;29;1131;-66
2022/06/11 00:16:31;;;;;;;11.63;5.64;;;;;;;16.35;94.10;101877.06;168722;29;1253;-66
2022/06/11 00:16:39;;;;;;;11.13;5.43;;;;;;;16.34;94.32;101882.41;168748;29;983;-66
2022/06/11 00:16:44;;;;;;;9.90;5.37;;;;;;;16.33;94.14;101873.63;168730;29;967;-66
2022/06/11 00:16:52;;;;;;;9.40;5.40;;;;;;;16.32;94.07;101877.22;168755;29;841;-66
2022/06/11 00:16:59;;;;;;;8.98;5.40;;;;;;;16.33;94.06;101871.00;169271;29;1154;-66
2022/06/11 00:17:09;;;;;;;10.90;5.45;;;;;;;16.33;94.17;101878.06;169243;29;1391;-66
2022/06/11 00:17:18;;;;;;;11.52;5.65;;;;;;;16.28;94.96;101874.81;169375;29;1183;-66
2022/06/11 00:17:25;;;;;;;12.99;5.84;;;;;;;16.25;95.32;101874.97;170004;29;1073;-65
2022/06/11 00:17:31;;;;;;;13.48;5.94;;;;;;;16.27;95.05;101875.72;169973;29;1151;-66
2022/06/11 00:17:37;;;;;;;12.52;5.95;;;;;;;16.28;94.73;101886.19;170033;29;1160;-65
2022/06/11 00:17:43;;;;;;;12.05;5.88;;;;;;;16.28;94.36;101874.81;170008;29;944;-66
2022/06/11 00:17:49;;;;;;;10.82;5.65;;;;;;;16.29;94.18;101874.72;170042;29;1070;-66
2022/06/11 00:17:56;;;;;;;8.82;5.40;;;;;;;16.29;94.72;101879.16;169320;29;877;-66
2022/06/11 00:18:04;;;;;;;8.98;5.52;;;;;;;16.29;94.15;101874.72;169389;29;999;-66
2022/06/11 00:18:09;;;;;;;8.84;5.48;;;;;;;16.31;94.35;101874.66;169358;29;1337;-65
2022/06/11 00:18:17;;;;;;;8.75;5.50;;;;;;;16.32;94.54;101881.66;169439;29;869;-66
2022/06/11 00:18:24;;;;;;;9.92;5.68;;;;;;;16.31;94.19;101874.66;169352;29;980;-66
2022/06/11 00:18:32;;;;;;;10.07;5.70;;;;;;;16.31;94.62;101880.78;169402;29;897;-66
2022/06/11 00:18:43;;;;;;;10.13;5.73;;;;;;;16.31;94.17;101880.78;169404;29;893;-66
2022/06/11 00:18:51;;;;;;;10.93;5.86;;;;;;;16.31;93.86;101877.28;169368;29;1170;-66
2022/06/11 00:19:00;;;;;;;9.53;5.60;;;;;;;16.32;93.95;101877.22;169857;29;896;-65
2022/06/11 00:19:07;;;;;;;9.20;5.60;;;;;;;16.32;94.15;101881.66;170059;29;1058;-66
2022/06/11 00:19:13;;;;;;;8.75;5.60;;;;;;;16.32;94.47;101876.38;169972;29;958;-66
2022/06/11 00:19:20;;;;;;;8.00;5.65;;;;;;;16.32;94.32;101873.75;169368;29;1059;-66
2022/06/11 00:19:28;;;;;;;8.76;5.68;;;;;;;16.33;94.00;101883.34;169382;29;924;-66
2022/06/11 00:19:34;;;;;;;9.13;5.58;;;;;;;16.32;94.17;101879.00;170024;29;987;-66
2022/06/11 00:19:42;;;;;;;9.47;5.57;;;;;;;16.32;94.05;101879.84;170070;29;1313;-66
2022/06/11 00:19:48;;;;;;;9.53;5.50;;;;;;;16.32;94.12;101874.56;170606;28;1248;-66
2022/06/11 00:19:55;;;;;;;8.95;5.57;;;;;;;16.32;94.27;101873.75;170689;29;1074;-66
2022/06/11 00:20:01;;;;;;;9.17;5.57;;;;;;;16.32;94.05;101876.38;170702;29;959;-66
2022/06/11 00:20:07;;;;;;;8.68;5.35;;;;;;;16.31;94.00;101879.91;169914;29;1080;-65
2022/06/11 00:20:13;;;;;;;8.57;5.20;;;;;;;16.32;94.28;101879.00;170005;29;991;-66
2022/06/11 00:20:19;;;;;;;8.68;5.18;;;;;;;16.32;93.78;101877.22;170050;29;931;-66
2022/06/11 00:20:27;;;;;;;9.02;5.00;;;;;;;16.32;94.21;101881.66;170019;29;916;-66
2022/06/11 00:20:33;;;;;;;8.65;5.13;;;;;;;16.32;93.94;101876.38;169936;29;1327;-66
2022/06/11 00:20:39;;;;;;;9.03;5.30;;;;;;;16.32;94.17;101879.00;170073;29;879;-66
2022/06/11 00:20:44;;;;;;;8.53;5.20;;;;;;;16.31;93.94;101880.78;170037;29;840;-66
2022/06/11 00:20:50;;;;;;;8.68;5.28;;;;;;;16.31;93.99;101874.66;169981;29;1161;-66
2022/06/11 00:20:56;;;;;;;8.93;5.43;;;;;;;16.31;94.10;101875.50;170046;29;1022;-66
2022/06/11 00:21:04;;;;;;;9.23;5.60;;;;;;;16.32;94.08;101881.66;170058;29;967;-66
2022/06/11 00:21:13;;;;;;;10.55;5.50;;;;;;;16.31;94.29;101879.91;170020;29;984;-66
2022/06/11 00:21:19;;;;;;;10.94;5.49;;;;;;;16.31;94.14;101877.28;170061;29;1059;-66
2022/06/11 00:21:31;;;;;;;10.93;5.55;;;;;;;16.29;94.33;101874.72;170039;29;963;-66
2022/06/11 00:21:40;;;;;;;10.89;5.63;;;;;;;16.30;94.12;101878.22;169902;29;1409;-66
2022/06/11 00:21:48;;;;;;;10.71;5.84;;;;;;;16.28;94.69;101890.63;170126;29;1334;-66
2022/06/11 00:21:55;;;;;;;10.82;5.75;;;;;;;16.26;94.44;101884.56;170585;28;1494;-66
2022/06/11 00:22:03;;;;;;;10.84;5.62;;;;;;;16.24;94.53;101882.00;170533;28;1371;-66
2022/06/11 00:22:10;;;;;;;10.87;5.53;;;;;;;16.22;94.80;101871.56;170775;28;974;-66
2022/06/11 00:22:18;;;;;;;10.97;5.50;;;;;;;16.22;94.55;101882.09;170837;28;872;-66
2022/06/11 00:22:24;;;;;;;11.47;5.63;;;;;;;16.23;94.56;101882.94;170779;28;876;-66
2022/06/11 00:22:30;;;;;;;10.60;5.68;;;;;;;16.25;94.50;101885.50;170787;28;915;-66
2022/06/11 00:22:36;;;;;;;9.80;5.53;;;;;;;16.24;94.72;101871.47;170793;28;867;-66
2022/06/11 00:22:41;;;;;;;9.48;5.50;;;;;;;16.25;94.88;101875.81;170753;28;900;-66
2022/06/11 00:22:47;;;;;;;9.43;5.50;;;;;;;16.25;94.54;101874.97;170811;28;844;-66
2022/06/11 00:22:53;;;;;;;9.10;5.40;;;;;;;16.26;94.41;101884.56;170747;28;1354;-66
2022/06/11 00:22:58;;;;;;;9.05;5.32;;;;;;;16.25;94.89;101880.25;170706;28;851;-65
2022/06/11 00:23:04;;;;;;;9.43;5.40;;;;;;;16.24;94.46;101884.66;170752;28;1006;-66
2022/06/11 00:23:09;;;;;;;10.57;5.40;;;;;;;16.25;94.73;101874.97;170766;28;1291;-66
2022/06/11 00:23:16;;;;;;;10.33;5.50;;;;;;;16.25;94.40;101883.72;170784;28;904;-66
2022/06/11 00:23:21;;;;;;;10.62;5.64;;;;;;;16.25;94.51;101886.34;170741;28;1007;-67
2022/06/11 00:23:26;;;;;;;11.57;5.83;;;;;;;16.25;94.79;101880.25;170745;28;1216;-67
2022/06/11 00:23:32;;;;;;;12.38;5.90;;;;;;;16.25;94.84;101874.97;170612;29;1433;-66
2022/06/11 00:23:39;;;;;;;12.07;6.05;;;;;;;16.26;94.70;101876.66;170680;29;927;-65
2022/06/11 00:23:46;;;;;;;11.07;6.00;;;;;;;16.25;94.85;101875.81;170720;29;908;-66
2022/06/11 00:23:52;;;;;;;10.86;5.96;;;;;;;16.26;94.37;101887.19;170712;29;939;-66
2022/06/11 00:23:58;;;;;;;9.63;5.65;;;;;;;16.26;94.41;101871.41;170702;29;923;-66
2022/06/11 00:24:05;;;;;;;8.40;5.50;;;;;;;16.26;94.76;101876.66;170728;29;959;-66
2022/06/11 00:24:11;;;;;;;8.28;5.32;;;;;;;16.25;94.25;101875.81;170675;29;1082;-66
2022/06/11 00:24:20;;;;;;;8.63;5.38;;;;;;;16.26;94.62;101881.94;170652;29;1111;-66
2022/06/11 00:24:27;;;;;;;8.83;5.40;;;;;;;16.25;94.25;101883.72;170447;29;1547;-66
2022/06/11 00:24:33;;;;;;;10.56;5.54;;;;;;;16.22;94.38;101876.81;169943;29;1176;-66
2022/06/11 00:24:38;;;;;;;10.90;5.65;;;;;;;16.22;94.71;101882.09;170054;29;921;-66
2022/06/11 00:24:44;;;;;;;11.30;5.77;;;;;;;16.22;94.75;101876.81;169885;29;1251;-66
2022/06/11 00:24:51;;;;;;;11.90;5.93;;;;;;;16.22;94.70;101876.81;170082;29;872;-66
2022/06/11 00:24:56;;;;;;;12.33;6.10;;;;;;;16.22;94.78;101879.44;170063;29;900;-66
2022/06/11 00:25:03;;;;;;;11.15;6.03;;;;;;;16.22;94.83;101882.09;169985;29;931;-66
2022/06/11 00:25:09;;;;;;;11.07;6.07;;;;;;;16.21;94.57;101880.38;170054;29;1030;-66
2022/06/11 00:25:15;;;;;;;11.07;5.93;;;;;;;16.20;94.67;101883.97;170005;29;967;-66
2022/06/11 00:25:21;;;;;;;11.37;6.00;;;;;;;16.20;95.00;101873.44;170056;29;1039;-66
2022/06/11 00:25:28;;;;;;;11.38;5.97;;;;;;;16.20;94.58;101881.31;170023;29;1173;-66
2022/06/11 00:25:35;;;;;;;11.53;5.90;;;;;;;16.21;94.79;101875.13;170686;29;896;-66
2022/06/11 00:25:41;;;;;;;11.85;5.85;;;;;;;16.20;94.80;101876.06;170668;29;999;-66
2022/06/11 00:25:47;;;;;;;11.23;5.68;;;;;;;16.20;94.69;101878.69;170727;29;872;-66
2022/06/11 00:25:54;;;;;;;11.03;5.60;;;;;;;16.20;94.93;101878.69;170697;29;988;-66
2022/06/11 00:26:02;;;;;;;10.97;5.60;;;;;;;16.17;95.25;101878.84;170720;29;1062;-66
2022/06/11 00:26:08;;;;;;;11.52;5.82;;;;;;;16.17;94.85;101878.84;170668;29;1150;-66
2022/06/11 00:26:14;;;;;;;11.30;5.93;;;;;;;16.19;95.01;101884.03;170700;29;876;-66
2022/06/11 00:26:21;;;;;;;11.90;6.07;;;;;;;16.17;95.21;101876.22;170723;29;868;-66
2022/06/11 00:26:27;;;;;;;11.13;6.17;;;;;;;16.17;95.19;101877.97;170704;29;916;-66
2022/06/11 00:26:34;;;;;;;11.33;6.13;;;;;;;16.17;95.28;101878.84;170732;29;1011;-66
2022/06/11 00:26:44;;;;;;;10.13;6.00;;;;;;;16.18;95.29;101883.16;170743;28;1204;-66
2022/06/11 00:26:52;;;;;;;10.71;5.96;;;;;;;16.17;95.23;101877.97;170785;29;1073;-66
2022/06/11 00:27:00;;;;;;;11.90;5.85;;;;;;;16.18;95.34;101884.97;170649;28;1522;-66
2022/06/11 00:27:06;;;;;;;12.02;6.07;;;;;;;16.18;94.95;101879.69;170703;28;982;-66
2022/06/11 00:27:14;;;;;;;11.77;6.10;;;;;;;16.18;95.30;101880.53;170730;28;1042;-66
2022/06/11 00:27:21;;;;;;;10.36;6.00;;;;;;;16.18;95.29;101877.91;170791;28;983;-66
2022/06/11 00:27:26;;;;;;;9.66;6.00;;;;;;;16.18;95.29;101879.69;170760;28;1053;-66
2022/06/11 00:27:32;;;;;;;9.57;5.85;;;;;;;16.17;95.26;101880.59;170774;28;863;-66
2022/06/11 00:27:38;;;;;;;9.85;5.65;;;;;;;16.17;94.91;101883.25;170732;28;911;-66
2022/06/11 00:27:43;;;;;;;9.73;5.53;;;;;;;16.17;94.95;101880.59;170763;28;906;-66
2022/06/11 00:27:49;;;;;;;10.00;5.53;;;;;;;16.17;95.22;101878.84;170786;28;867;-66
2022/06/11 00:27:55;;;;;;;10.18;5.50;;;;;;;16.18;95.21;101877.91;170602;29;935;-66
2022/06/11 00:28:03;;;;;;;10.37;5.50;;;;;;;16.18;95.44;101885.81;170719;29;1038;-66
2022/06/11 00:28:09;;;;;;;10.31;5.61;;;;;;;16.17;95.12;101878.84;170675;29;1073;-66
2022/06/11 00:28:15;;;;;;;10.63;5.70;;;;;;;16.18;94.98;101879.69;170581;29;1185;-66
2022/06/11 00:28:21;;;;;;;10.90;5.78;;;;;;;16.17;95.28;101878.84;170711;29;959;-66
2022/06/11 00:28:28;;;;;;;9.52;5.70;;;;;;;16.19;95.35;101876.13;170667;29;990;-66
2022/06/11 00:28:35;;;;;;;9.05;5.68;;;;;;;16.18;95.24;101877.91;170694;29;904;-66
2022/06/11 00:28:41;;;;;;;10.42;5.84;;;;;;;16.18;95.01;101880.53;170682;29;1156;-66
2022/06/11 00:28:48;;;;;;;11.00;5.93;;;;;;;16.16;95.07;101882.41;170752;29;994;-66
2022/06/11 00:28:54;;;;;;;11.38;6.03;;;;;;;16.16;95.10;101877.16;169760;29;1580;-66
2022/06/11 00:28:59;;;;;;;11.98;6.10;;;;;;;16.15;95.09;101880.69;169984;29;1382;-66
2022/06/11 00:29:05;;;;;;;11.50;6.18;;;;;;;16.15;95.06;101880.69;170614;29;916;-66
2022/06/11 00:29:13;;;;;;;10.45;6.10;;;;;;;16.16;94.87;101879.78;170643;29;928;-66
2022/06/11 00:29:23;;;;;;;11.20;6.00;;;;;;;16.16;95.22;101879.78;170649;28;1524;-66
2022/06/11 00:29:32;;;;;;;11.29;5.86;;;;;;;16.16;95.06;101874.50;170660;29;1208;-66
2022/06/11 00:29:40;;;;;;;11.46;5.79;;;;;;;16.16;95.03;101882.41;170677;29;1355;-66
2022/06/11 00:29:47;;;;;;;10.73;5.87;;;;;;;16.17;94.83;101877.97;170682;29;955;-66
2022/06/11 00:29:53;;;;;;;9.57;5.77;;;;;;;16.18;94.66;101890.22;170695;29;1154;-66
2022/06/11 00:29:58;;;;;;;12.13;5.75;;;;;;;16.16;95.02;101877.16;170675;29;954;-66
2022/06/11 00:30:11;;;;;;;12.00;5.67;;;;;;;16.16;95.11;101877.16;170655;29;903;-66
2022/06/11 00:30:18;;;;;;;12.46;5.68;;;;;;;16.16;94.91;101877.16;170666;29;2210;-66
2022/06/11 00:30:24;;;;;;;13.82;5.80;;;;;;;16.16;95.07;101879.78;170599;28;1298;-66
2022/06/11 00:30:29;;;;;;;12.33;5.80;;;;;;;16.10;95.36;101877.44;170661;29;947;-66
2022/06/11 00:30:36;;;;;;;12.75;5.90;;;;;;;16.13;95.49;101874.66;170708;29;952;-66
2022/06/11 00:30:43;;;;;;;12.38;5.86;;;;;;;16.13;95.14;101879.06;170670;29;1150;-66
2022/06/11 00:30:48;;;;;;;12.10;5.80;;;;;;;16.14;95.19;101883.38;170776;29;1376;-66
2022/06/11 00:30:54;;;;;;;11.18;5.80;;;;;;;16.14;95.10;101878.13;170586;29;900;-65
2022/06/11 00:31:00;;;;;;;10.70;5.85;;;;;;;16.15;95.40;101880.69;170672;29;860;-66
2022/06/11 00:31:07;;;;;;;11.27;5.80;;;;;;;16.12;95.62;101878.22;171270;28;1071;-66
2022/06/11 00:31:13;;;;;;;10.90;5.70;;;;;;;16.08;95.97;101879.31;171338;28;1158;-66
2022/06/11 00:31:20;;;;;;;10.63;5.77;;;;;;;16.09;95.85;101881.00;171351;28;849;-66
2022/06/11 00:31:25;;;;;;;10.57;5.60;;;;;;;16.09;95.18;101883.63;171376;28;1061;-65
2022/06/11 00:31:31;;;;;;;10.23;5.50;;;;;;;16.11;95.38;101878.28;171363;28;1018;-66
2022/06/11 00:31:38;;;;;;;8.73;5.53;;;;;;;16.11;95.92;101875.66;171379;28;1006;-66
2022/06/11 00:31:44;;;;;;;8.70;5.53;;;;;;;16.06;95.80;101871.47;171334;28;962;-66
2022/06/11 00:31:51;;;;;;;9.10;5.60;;;;;;;16.02;96.41;101879.59;171407;28;904;-65
2022/06/11 00:31:57;;;;;;;9.10;5.74;;;;;;;15.98;96.85;101878.03;171377;28;931;-66
2022/06/11 00:32:06;;;;;;;11.07;5.93;;;;;;;16.01;96.31;101877.91;171353;28;959;-66
2022/06/11 00:32:14;;;;;;;12.34;6.00;;;;;;;16.05;95.90;101879.44;170570;29;1637;-66
2022/06/11 00:32:20;;;;;;;12.70;6.10;;;;;;;16.06;95.84;101875.88;170694;29;1070;-66
2022/06/11 00:32:25;;;;;;;12.80;6.10;;;;;;;16.07;95.49;101878.44;170048;29;863;-66
2022/06/11 00:32:31;;;;;;;11.77;6.00;;;;;;;16.08;95.55;101876.66;169282;29;829;-66
2022/06/11 00:32:40;;;;;;;11.57;5.97;;;;;;;16.09;95.51;101881.00;169365;29;1055;-65
2022/06/11 00:32:48;;;;;;;10.39;5.80;;;;;;;16.09;95.28;101878.38;169263;29;1331;-65
2022/06/11 00:32:55;;;;;;;9.32;5.62;;;;;;;16.12;95.53;101875.59;169771;29;989;-65
2022/06/11 00:33:06;;;;;;;9.98;5.70;;;;;;;16.10;95.17;101869.53;169243;29;1258;-66
2022/06/11 00:33:11;;;;;;;10.03;5.70;;;;;;;16.03;96.09;101876.88;169406;29;933;-66